Terminal Aerodrome Forecast
Issued by NWS

Home | Current Version | Previous Version | Graphics & Text | Print | Product List | Glossary On
Versions: 1 2 3 4 5 6 7 8 9 10 11 12 13 14 15 16 17 18 19
887
FTUS43 KGRB 170451 AAB
TAFCWA
TAF AMD
KCWA 170451Z 1705/1724 30011G15KT 6SM -SN SCT025 OVC035
      TEMPO 1705/1708 2SM -SN SCT010 BKN025
     FM170800 31008KT P6SM BKN028
     FM171400 32010KT P6SM BKN022
     FM171900 32008KT P6SM BKN035=

USA.gov is the U.S. government's official web portal to all federal, state and local government web resources and services.